Time;durP1;ratioP1;P1;durP2;ratioP2;P2;SDS_P1;SDS_P2;PMS_P1;PMS_P2;Temp;Humidity;BMP_temperature;BMP_pressure;BME280_temperature;BME280_humidity;BME280_pressure;Samples;Min_cycle;Max_cycle;Signal;HPM_P1;HPM_P2
2022/12/24 00:00:58;;;;;;;;;;;10.60;99.90;;;;;;5096660;28;19931;-65
2022/12/24 00:03:24;;;;;;;;;;;10.60;99.90;;;;;;5096720;28;19909;-65
2022/12/24 00:05:49;;;;;;;;;;;10.60;99.90;;;;;;5078341;28;19912;-65
2022/12/24 00:08:15;;;;;;;;;;;10.60;99.90;;;;;;5096580;28;20454;-65
2022/12/24 00:10:40;;;;;;;;;;;10.60;99.90;;;;;;5096488;28;20370;-65
2022/12/24 00:13:06;;;;;;;;;;;10.60;99.90;;;;;;5096440;28;20289;-65
2022/12/24 00:15:31;;;;;;;;;;;10.60;99.90;;;;;;5096438;28;20003;-65
2022/12/24 00:17:56;;;;;;;;;;;10.50;99.90;;;;;;5095884;28;19908;-65
2022/12/24 00:20:23;;;;;;;;;;;10.50;99.90;;;;;;5096332;28;19915;-65
2022/12/24 00:22:49;;;;;;;;;;;10.50;99.90;;;;;;5096138;28;19916;-65
2022/12/24 00:25:14;;;;;;;;;;;10.40;99.90;;;;;;5096148;28;20450;-65
2022/12/24 00:27:40;;;;;;;;;;;10.50;99.90;;;;;;5096204;28;19954;-64
2022/12/24 00:30:05;;;;;;;;;;;10.50;99.90;;;;;;5096188;28;19998;-64
2022/12/24 00:32:31;;;;;;;;;;;10.50;99.90;;;;;;5096167;28;19908;-65
2022/12/24 00:34:56;;;;;;;;;;;10.50;99.90;;;;;;5096320;28;19916;-65
2022/12/24 00:37:22;;;;;;;;;;;10.50;99.90;;;;;;5096072;28;19909;-64
2022/12/24 00:39:47;;;;;;;;;;;10.60;99.90;;;;;;5095969;28;19942;-65
2022/12/24 00:42:13;;;;;;;;;;;10.50;99.90;;;;;;5095933;28;19951;-64
2022/12/24 00:44:38;;;;;;;;;;;10.50;99.90;;;;;;5095907;28;19909;-64
2022/12/24 00:47:04;;;;;;;;;;;10.50;99.90;;;;;;5095590;28;19926;-65
2022/12/24 00:49:29;;;;;;;;;;;10.50;99.90;;;;;;5095761;28;20482;-65
2022/12/24 00:51:54;;;;;;;;;;;10.40;99.90;;;;;;5095992;28;19908;-65
2022/12/24 00:54:20;;;;;;;;;;;10.30;99.90;;;;;;5095670;28;19908;-65
2022/12/24 00:56:45;;;;;;;;;;;10.20;99.90;;;;;;5095839;28;19912;-65
2022/12/24 00:59:11;;;;;;;;;;;10.20;99.90;;;;;;5077522;28;19908;-65
2022/12/24 01:01:36;;;;;;;;;;;10.20;99.90;;;;;;5095483;28;19944;-65
2022/12/24 01:06:48;;;;;;;;;;;10.20;99.90;;;;;;5095226;28;19958;-65
2022/12/24 01:09:13;;;;;;;;;;;10.20;99.90;;;;;;5095393;28;19912;-65
2022/12/24 01:11:38;;;;;;;;;;;10.20;99.90;;;;;;5095329;28;19915;-65
2022/12/24 01:14:04;;;;;;;;;;;10.20;99.90;;;;;;5095289;28;19909;-65
2022/12/24 01:16:29;;;;;;;;;;;10.30;99.90;;;;;;5077271;28;19908;-65
2022/12/24 01:18:55;;;;;;;;;;;10.20;99.90;;;;;;5095220;28;19934;-65
2022/12/24 01:21:21;;;;;;;;;;;10.30;99.90;;;;;;5095142;28;19908;-65
2022/12/24 01:23:46;;;;;;;;;;;10.20;99.90;;;;;;5095101;28;19961;-65
2022/12/24 01:26:12;;;;;;;;;;;10.30;99.90;;;;;;5076945;28;19912;-65
2022/12/24 01:28:37;;;;;;;;;;;10.30;99.90;;;;;;5095004;28;20285;-65
2022/12/24 01:31:09;;;;;;;;;;;10.30;99.90;;;;;;5094408;28;19962;-65
2022/12/24 01:33:34;;;;;;;;;;;10.40;99.90;;;;;;5094919;28;19908;-65
2022/12/24 01:36:01;;;;;;;;;;;10.40;99.90;;;;;;5094914;28;20008;-65
2022/12/24 01:38:27;;;;;;;;;;;10.40;99.90;;;;;;5094960;28;19915;-65
2022/12/24 01:43:38;;;;;;;;;;;10.40;99.90;;;;;;5094501;28;19908;-65
2022/12/24 01:46:04;;;;;;;;;;;10.40;99.90;;;;;;5094437;28;19920;-65
2022/12/24 01:48:34;;;;;;;;;;;10.40;99.90;;;;;;5094682;28;19908;-65
2022/12/24 01:51:02;;;;;;;;;;;10.40;99.90;;;;;;5094523;28;19915;-65
2022/12/24 01:53:28;;;;;;;;;;;10.40;99.90;;;;;;5094554;28;19908;-65
2022/12/24 01:55:54;;;;;;;;;;;10.30;99.90;;;;;;5094525;28;19915;-65
2022/12/24 01:58:20;;;;;;;;;;;10.30;99.90;;;;;;5094710;28;19936;-65
2022/12/24 02:00:45;;;;;;;;;;;10.40;99.90;;;;;;5094424;28;20427;-65
2022/12/24 02:03:11;;;;;;;;;;;10.40;99.90;;;;;;5094429;28;19909;-65
2022/12/24 02:05:41;;;;;;;;;;;10.40;99.90;;;;;;5094279;28;19912;-65
2022/12/24 02:08:06;;;;;;;;;;;10.40;99.90;;;;;;5094268;28;19919;-65
2022/12/24 02:10:32;;;;;;;;;;;10.40;99.90;;;;;;5094374;28;20006;-65
2022/12/24 02:12:58;;;;;;;;;;;10.40;99.90;;;;;;5076247;28;19908;-65
2022/12/24 02:15:26;;;;;;;;;;;10.40;99.90;;;;;;5094137;28;19908;-65
2022/12/24 02:18:04;;;;;;;;;;;10.40;99.90;;;;;;5094135;28;20334;-65
2022/12/24 02:20:50;;;;;;;;;;;10.30;99.90;;;;;;5094098;28;19921;-65
2022/12/24 02:23:35;;;;;;;;;;;10.30;99.90;;;;;;5093999;28;20418;-65
2022/12/24 02:26:20;;;;;;;;;;;10.30;99.90;;;;;;5093819;28;20397;-66
2022/12/24 02:29:06;;;;;;;;;;;10.30;99.90;;;;;;5093808;28;19999;-65
2022/12/24 02:31:37;;;;;;;;;;;10.30;99.90;;;;;;5093784;28;19908;-65
2022/12/24 02:34:23;;;;;;;;;;;10.30;99.90;;;;;;5093867;28;20021;-66
2022/12/24 02:36:54;;;;;;;;;;;10.30;99.90;;;;;;5093754;28;19931;-65
2022/12/24 02:39:22;;;;;;;;;;;10.30;99.90;;;;;;5093819;28;19947;-65
2022/12/24 02:42:06;;;;;;;;;;;10.30;99.90;;;;;;5093626;28;20057;-65
2022/12/24 02:44:38;;;;;;;;;;;10.30;99.90;;;;;;5093783;28;19915;-66
2022/12/24 02:47:05;;;;;;;;;;;10.30;99.90;;;;;;5075531;28;20293;-65
2022/12/24 02:49:30;;;;;;;;;;;10.30;99.90;;;;;;5093886;28;19979;-65
2022/12/24 02:51:55;;;;;;;;;;;10.30;99.90;;;;;;5094024;28;19912;-65
2022/12/24 02:54:21;;;;;;;;;;;10.30;99.90;;;;;;5093692;28;19915;-65
2022/12/24 02:57:03;;;;;;;;;;;10.30;99.90;;;;;;5093688;28;20347;-65
2022/12/24 03:02:22;;;;;;;;;;;10.30;99.90;;;;;;5091387;27;20288;-64
2022/12/24 03:04:56;;;;;;;;;;;10.30;99.90;;;;;;5091194;28;19913;-64
2022/12/24 03:07:25;;;;;;;;;;;10.20;99.90;;;;;;5091131;28;20373;-64
2022/12/24 03:09:54;;;;;;;;;;;10.30;99.90;;;;;;5091397;28;19908;-64
2022/12/24 03:12:26;;;;;;;;;;;10.30;99.90;;;;;;5091040;28;19908;-63
2022/12/24 03:14:52;;;;;;;;;;;10.30;99.90;;;;;;5090993;28;19916;-63
2022/12/24 03:17:18;;;;;;;;;;;10.20;99.90;;;;;;5123862;28;19908;-63
2022/12/24 03:19:44;;;;;;;;;;;10.20;99.90;;;;;;5089632;28;20374;-63
2022/12/24 03:22:10;;;;;;;;;;;10.20;99.90;;;;;;5090931;28;19909;-63
2022/12/24 03:24:36;;;;;;;;;;;10.20;99.90;;;;;;5089621;28;19995;-63
2022/12/24 03:27:04;;;;;;;;;;;10.20;99.90;;;;;;5090782;28;19916;-63
2022/12/24 03:29:29;;;;;;;;;;;10.20;99.90;;;;;;5090719;28;19908;-63
2022/12/24 03:31:58;;;;;;;;;;;10.20;99.90;;;;;;5090920;28;20364;-63
2022/12/24 03:34:24;;;;;;;;;;;10.20;99.90;;;;;;5090648;28;19995;-63
2022/12/24 03:36:49;;;;;;;;;;;10.20;99.90;;;;;;5090754;28;20015;-63
2022/12/24 03:39:15;;;;;;;;;;;10.10;99.90;;;;;;5090830;28;19908;-63
2022/12/24 03:41:40;;;;;;;;;;;10.10;99.90;;;;;;5090464;28;19913;-63
2022/12/24 03:44:06;;;;;;;;;;;10.10;99.90;;;;;;5090426;28;19912;-63
2022/12/24 03:46:31;;;;;;;;;;;10.00;99.90;;;;;;5090680;28;20361;-63
2022/12/24 03:48:57;;;;;;;;;;;10.00;99.90;;;;;;5090393;28;19912;-63
2022/12/24 03:51:23;;;;;;;;;;;10.00;99.90;;;;;;5090291;28;19909;-63
2022/12/24 03:53:51;;;;;;;;;;;10.00;99.90;;;;;;5090261;28;19908;-63
2022/12/24 03:56:16;;;;;;;;;;;10.00;99.90;;;;;;5090203;28;19915;-63
2022/12/24 03:58:41;;;;;;;;;;;9.90;99.90;;;;;;5088957;28;19909;-63
2022/12/24 04:01:07;;;;;;;;;;;10.00;99.90;;;;;;5102457;28;19967;-63
2022/12/24 04:03:32;;;;;;;;;;;10.00;99.90;;;;;;5110394;28;19908;-63
2022/12/24 04:05:59;;;;;;;;;;;10.00;99.90;;;;;;5110418;28;19912;-63
2022/12/24 04:08:25;;;;;;;;;;;9.90;99.90;;;;;;5110326;28;19915;-63
2022/12/24 04:10:50;;;;;;;;;;;9.90;99.90;;;;;;5110272;28;19909;-63
2022/12/24 04:13:16;;;;;;;;;;;9.80;99.90;;;;;;5079541;28;20009;-63
2022/12/24 04:15:41;;;;;;;;;;;9.80;99.90;;;;;;5096849;28;19908;-64
2022/12/24 04:18:06;;;;;;;;;;;9.80;99.90;;;;;;5096600;28;19999;-63
2022/12/24 04:20:32;;;;;;;;;;;9.80;99.90;;;;;;5096511;28;19919;-65
2022/12/24 04:22:57;;;;;;;;;;;9.80;99.90;;;;;;5096467;28;19912;-63
2022/12/24 04:25:23;;;;;;;;;;;9.80;99.90;;;;;;5096464;28;19908;-63
2022/12/24 04:27:48;;;;;;;;;;;9.80;99.90;;;;;;5096383;28;20381;-63
2022/12/24 04:30:14;;;;;;;;;;;9.80;99.90;;;;;;5096608;28;20274;-63
2022/12/24 04:32:39;;;;;;;;;;;9.80;99.90;;;;;;5096276;28;19999;-63
2022/12/24 04:35:05;;;;;;;;;;;9.90;99.90;;;;;;5096217;28;19908;-63
2022/12/24 04:37:31;;;;;;;;;;;9.90;99.90;;;;;;5096270;28;19961;-63
2022/12/24 04:39:57;;;;;;;;;;;10.00;99.90;;;;;;5077912;28;19947;-63
2022/12/24 04:42:22;;;;;;;;;;;10.00;99.90;;;;;;5096073;28;20012;-63
2022/12/24 04:44:49;;;;;;;;;;;9.90;99.90;;;;;;5096026;28;20254;-63
2022/12/24 04:47:14;;;;;;;;;;;9.90;99.90;;;;;;5096043;28;20250;-63
2022/12/24 04:49:40;;;;;;;;;;;9.90;99.90;;;;;;5095986;28;19916;-63
2022/12/24 04:52:05;;;;;;;;;;;9.90;99.90;;;;;;5095929;28;20441;-63
2022/12/24 04:54:30;;;;;;;;;;;10.00;99.90;;;;;;5095896;28;19908;-63
2022/12/24 04:56:56;;;;;;;;;;;9.90;99.90;;;;;;5095843;28;19952;-63
2022/12/24 04:59:21;;;;;;;;;;;10.00;99.90;;;;;;5095804;28;19908;-63
2022/12/24 05:01:47;;;;;;;;;;;10.00;99.90;;;;;;5095503;28;19931;-63
2022/12/24 05:04:12;;;;;;;;;;;10.00;99.90;;;;;;5095959;28;19908;-63
2022/12/24 05:06:38;;;;;;;;;;;10.00;99.90;;;;;;5095674;28;19999;-63
2022/12/24 05:09:03;;;;;;;;;;;10.00;99.90;;;;;;5095555;28;19909;-64
2022/12/24 05:11:29;;;;;;;;;;;10.00;99.90;;;;;;5095470;28;20007;-63
2022/12/24 05:13:55;;;;;;;;;;;10.00;99.90;;;;;;5095484;28;19915;-63
2022/12/24 05:16:21;;;;;;;;;;;9.90;99.90;;;;;;5095465;28;20281;-63
2022/12/24 05:18:47;;;;;;;;;;;9.80;99.90;;;;;;5095377;28;19908;-63
2022/12/24 05:21:14;;;;;;;;;;;9.80;99.90;;;;;;5095301;28;19912;-63
2022/12/24 05:26:28;;;;;;;;;;;9.70;99.90;;;;;;5095122;28;19954;-63
2022/12/24 05:28:55;;;;;;;;;;;9.60;99.90;;;;;;5095217;28;19914;-63
2022/12/24 05:31:21;;;;;;;;;;;9.60;99.90;;;;;;5095423;28;19934;-63
2022/12/24 05:33:47;;;;;;;;;;;9.60;99.90;;;;;;5095133;28;19908;-63
2022/12/24 05:36:13;;;;;;;;;;;9.50;99.90;;;;;;5095349;28;20008;-63
2022/12/24 05:38:38;;;;;;;;;;;9.50;99.90;;;;;;5095295;28;19959;-63
2022/12/24 05:41:04;;;;;;;;;;;9.60;99.90;;;;;;5094894;28;19919;-63
2022/12/24 05:43:30;;;;;;;;;;;9.60;99.90;;;;;;5095007;28;19947;-62
2022/12/24 05:45:58;;;;;;;;;;;9.60;99.90;;;;;;5095156;28;19908;-63
2022/12/24 05:48:23;;;;;;;;;;;9.60;99.90;;;;;;5095072;28;19908;-62
2022/12/24 05:50:48;;;;;;;;;;;9.60;99.90;;;;;;5094784;28;20376;-63
2022/12/24 05:53:14;;;;;;;;;;;9.60;99.90;;;;;;5094718;28;20003;-63
2022/12/24 05:55:39;;;;;;;;;;;9.60;99.90;;;;;;5094703;28;19923;-63
2022/12/24 05:58:05;;;;;;;;;;;9.70;99.90;;;;;;5094955;28;19951;-63
2022/12/24 06:00:30;;;;;;;;;;;9.70;99.90;;;;;;5094427;28;20396;-63
2022/12/24 06:02:56;;;;;;;;;;;9.70;99.90;;;;;;5094571;28;20282;-63
2022/12/24 06:05:21;;;;;;;;;;;9.70;99.90;;;;;;5076380;28;19951;-63
2022/12/24 06:07:47;;;;;;;;;;;9.70;99.90;;;;;;5094482;28;19919;-63
2022/12/24 06:10:12;;;;;;;;;;;9.70;99.90;;;;;;5094503;28;19908;-63
2022/12/24 06:12:37;;;;;;;;;;;9.70;99.90;;;;;;5094616;28;20362;-63
2022/12/24 06:15:03;;;;;;;;;;;9.70;99.90;;;;;;5094360;28;19912;-63
2022/12/24 06:17:28;;;;;;;;;;;9.70;99.90;;;;;;5094382;28;19915;-63
2022/12/24 06:19:54;;;;;;;;;;;9.80;99.90;;;;;;5094197;28;19947;-62
2022/12/24 06:22:19;;;;;;;;;;;9.80;99.90;;;;;;5094204;28;19922;-63
2022/12/24 06:24:45;;;;;;;;;;;9.80;99.90;;;;;;5094447;28;20377;-63
2022/12/24 06:27:10;;;;;;;;;;;9.80;99.90;;;;;;5094147;28;19962;-63
2022/12/24 06:29:36;;;;;;;;;;;9.80;99.90;;;;;;5094120;28;19908;-63
2022/12/24 06:32:01;;;;;;;;;;;9.90;99.90;;;;;;5075968;28;19908;-64
2022/12/24 06:34:27;;;;;;;;;;;9.90;99.90;;;;;;5093911;28;19912;-63
2022/12/24 06:36:52;;;;;;;;;;;9.90;99.90;;;;;;5093956;28;19908;-63
2022/12/24 06:39:18;;;;;;;;;;;9.90;99.90;;;;;;5094009;28;19931;-63
2022/12/24 06:41:43;;;;;;;;;;;9.90;99.90;;;;;;5093912;28;19915;-63
2022/12/24 06:44:08;;;;;;;;;;;9.90;99.90;;;;;;5093945;28;19908;-63
2022/12/24 06:46:42;;;;;;;;;;;9.90;99.90;;;;;;5076145;28;19994;-64
2022/12/24 06:49:07;;;;;;;;;;;10.00;99.90;;;;;;5094124;28;20345;-63
2022/12/24 06:51:33;;;;;;;;;;;10.00;99.90;;;;;;5093870;28;19908;-63
2022/12/24 06:53:58;;;;;;;;;;;10.00;99.90;;;;;;5093827;28;20398;-62
2022/12/24 06:56:23;;;;;;;;;;;10.00;99.90;;;;;;5075778;28;19908;-63
2022/12/24 06:58:49;;;;;;;;;;;9.90;99.90;;;;;;5093756;28;19908;-63
2022/12/24 07:01:16;;;;;;;;;;;9.90;99.90;;;;;;5093474;28;19928;-63
2022/12/24 07:03:42;;;;;;;;;;;9.80;99.90;;;;;;5093990;28;19961;-63
2022/12/24 07:06:26;;;;;;;;;;;9.80;99.90;;;;;;5093927;28;20357;-63
2022/12/24 07:08:51;;;;;;;;;;;9.80;99.90;;;;;;5093653;28;20289;-63
2022/12/24 07:11:17;;;;;;;;;;;9.80;99.90;;;;;;5093919;28;19912;-63
2022/12/24 07:13:43;;;;;;;;;;;9.90;99.90;;;;;;5093605;28;19958;-63
2022/12/24 07:16:08;;;;;;;;;;;9.80;99.90;;;;;;5093600;28;19962;-63
2022/12/24 07:18:34;;;;;;;;;;;9.90;99.90;;;;;;5093626;28;19923;-62
2022/12/24 07:21:00;;;;;;;;;;;9.90;99.90;;;;;;5093458;28;20056;-63
2022/12/24 07:23:25;;;;;;;;;;;9.90;99.90;;;;;;5093509;28;19908;-63
2022/12/24 07:25:51;;;;;;;;;;;10.00;99.90;;;;;;5093488;28;20288;-63
2022/12/24 07:28:16;;;;;;;;;;;9.90;99.90;;;;;;5075461;28;19914;-63
2022/12/24 07:30:41;;;;;;;;;;;10.00;99.90;;;;;;5093523;28;20365;-63
2022/12/24 07:33:07;;;;;;;;;;;10.00;99.90;;;;;;5093420;28;20301;-63
2022/12/24 07:35:32;;;;;;;;;;;10.00;99.90;;;;;;5093428;28;19955;-63
2022/12/24 07:37:58;;;;;;;;;;;10.00;99.90;;;;;;5093362;28;19916;-63
2022/12/24 07:40:23;;;;;;;;;;;10.10;99.90;;;;;;5093328;28;20365;-63
2022/12/24 07:42:49;;;;;;;;;;;10.10;99.90;;;;;;5093321;28;19931;-63
2022/12/24 07:45:14;;;;;;;;;;;10.00;99.90;;;;;;5093323;28;20007;-63
2022/12/24 07:47:40;;;;;;;;;;;10.00;99.90;;;;;;5095078;28;19953;-63
2022/12/24 07:50:05;;;;;;;;;;;10.10;99.90;;;;;;5097207;28;19915;-65
2022/12/24 07:52:31;;;;;;;;;;;10.10;99.90;;;;;;5097071;28;19908;-63
2022/12/24 07:54:56;;;;;;;;;;;10.10;99.90;;;;;;5097324;28;19995;-63
2022/12/24 07:57:22;;;;;;;;;;;10.10;99.90;;;;;;5097216;28;19909;-63
2022/12/24 07:59:47;;;;;;;;;;;10.20;99.90;;;;;;5096866;28;20409;-63
2022/12/24 08:02:13;;;;;;;;;;;10.10;99.90;;;;;;5096939;28;20365;-63
2022/12/24 08:04:38;;;;;;;;;;;10.10;99.90;;;;;;5096823;28;20281;-63
2022/12/24 08:07:04;;;;;;;;;;;10.20;99.90;;;;;;5096803;28;19938;-63
2022/12/24 08:09:30;;;;;;;;;;;10.10;99.90;;;;;;5096748;28;19908;-63
2022/12/24 08:11:56;;;;;;;;;;;10.10;99.90;;;;;;5096701;28;19953;-63
2022/12/24 08:14:21;;;;;;;;;;;10.10;99.90;;;;;;5096666;28;20010;-63
2022/12/24 08:16:47;;;;;;;;;;;10.00;99.90;;;;;;5078408;28;19912;-63
2022/12/24 08:19:12;;;;;;;;;;;10.00;99.90;;;;;;5096842;28;19908;-63
2022/12/24 08:21:38;;;;;;;;;;;9.90;99.90;;;;;;5096440;28;19919;-63
2022/12/24 08:24:03;;;;;;;;;;;9.90;99.90;;;;;;5096458;28;19908;-63
2022/12/24 08:26:29;;;;;;;;;;;9.90;99.90;;;;;;5096428;28;19908;-63
2022/12/24 08:28:54;;;;;;;;;;;9.80;99.90;;;;;;5096405;28;19919;-63
2022/12/24 08:31:20;;;;;;;;;;;9.80;99.90;;;;;;5096307;28;19908;-63
2022/12/24 08:33:45;;;;;;;;;;;9.80;99.90;;;;;;5096563;28;19912;-63
2022/12/24 08:36:11;;;;;;;;;;;9.80;99.90;;;;;;5096476;28;19908;-63
2022/12/24 08:38:36;;;;;;;;;;;9.80;99.90;;;;;;5096481;28;19998;-63
2022/12/24 08:41:02;;;;;;;;;;;9.90;99.90;;;;;;5096384;28;19913;-63
2022/12/24 08:43:28;;;;;;;;;;;10.00;99.90;;;;;;5096384;28;20280;-63
2022/12/24 08:45:53;;;;;;;;;;;10.00;99.90;;;;;;5096088;28;19908;-63
2022/12/24 08:48:18;;;;;;;;;;;10.10;99.90;;;;;;5096316;28;19923;-63
2022/12/24 08:50:44;;;;;;;;;;;10.10;99.90;;;;;;5096034;28;19914;-63
2022/12/24 08:53:10;;;;;;;;;;;10.10;99.90;;;;;;5095928;28;19908;-63
2022/12/24 08:55:35;;;;;;;;;;;10.10;99.90;;;;;;5095903;28;19915;-63
2022/12/24 08:58:01;;;;;;;;;;;10.20;99.90;;;;;;5095736;28;19908;-63
2022/12/24 09:00:26;;;;;;;;;;;10.20;99.90;;;;;;5095688;28;19935;-63
2022/12/24 09:02:52;;;;;;;;;;;10.20;99.90;;;;;;5095675;28;20025;-63
2022/12/24 09:05:17;;;;;;;;;;;10.20;99.90;;;;;;5095706;28;19916;-63
2022/12/24 09:07:43;;;;;;;;;;;10.20;99.90;;;;;;5095611;28;19915;-63
2022/12/24 09:10:09;;;;;;;;;;;10.30;99.90;;;;;;5095656;28;19912;-64
2022/12/24 09:12:34;;;;;;;;;;;10.30;99.90;;;;;;5095809;28;20385;-63
2022/12/24 09:15:00;;;;;;;;;;;10.30;99.90;;;;;;5077390;28;19908;-63
2022/12/24 09:17:25;;;;;;;;;;;10.30;99.90;;;;;;5095457;28;20396;-63
2022/12/24 09:19:51;;;;;;;;;;;10.30;99.90;;;;;;5095348;28;19908;-63
2022/12/24 09:22:16;;;;;;;;;;;10.40;99.90;;;;;;5095630;28;19908;-63
2022/12/24 09:24:42;;;;;;;;;;;10.40;99.90;;;;;;5095313;28;19908;-63
2022/12/24 09:27:07;;;;;;;;;;;10.40;99.90;;;;;;5095515;28;20369;-63
2022/12/24 09:29:33;;;;;;;;;;;10.50;99.90;;;;;;5095210;28;20349;-63
2022/12/24 09:31:58;;;;;;;;;;;10.60;99.90;;;;;;5095177;28;19912;-63
2022/12/24 09:34:24;;;;;;;;;;;10.60;99.90;;;;;;5095122;28;19954;-63
2022/12/24 09:36:50;;;;;;;;;;;10.60;99.90;;;;;;5095270;28;19908;-64
2022/12/24 09:39:16;;;;;;;;;;;10.70;99.90;;;;;;5095284;28;19953;-63
2022/12/24 09:42:01;;;;;;;;;;;10.70;99.90;;;;;;5095166;28;19912;-63
2022/12/24 09:47:10;;;;;;;;;;;10.90;99.90;;;;;;5071149;28;19913;-66
2022/12/24 09:49:39;;;;;;;;;;;10.90;99.90;;;;;;5070982;28;20003;-64
2022/12/24 09:52:06;;;;;;;;;;;10.90;99.90;;;;;;5070911;28;19908;-64
2022/12/24 09:54:37;;;;;;;;;;;10.80;99.90;;;;;;5070853;28;19909;-64
2022/12/24 09:57:06;;;;;;;;;;;10.70;99.90;;;;;;5070784;28;19908;-64
2022/12/24 09:59:38;;;;;;;;;;;10.80;99.90;;;;;;5070773;28;19916;-64
2022/12/24 10:02:08;;;;;;;;;;;10.80;99.90;;;;;;5069611;28;19915;-64
2022/12/24 10:04:34;;;;;;;;;;;10.90;99.90;;;;;;5070693;28;20332;-64
2022/12/24 10:07:10;;;;;;;;;;;10.90;99.90;;;;;;5070812;28;20003;-64
2022/12/24 10:09:41;;;;;;;;;;;10.80;99.90;;;;;;5069208;28;19915;-64
2022/12/24 10:12:15;;;;;;;;;;;10.80;99.90;;;;;;5070497;28;19916;-64
2022/12/24 10:17:46;;;;;;;;;;;10.90;99.90;;;;;;5091399;27;19934;-63
2022/12/24 10:20:32;;;;;;;;;;;10.90;99.90;;;;;;5091304;28;19912;-63
2022/12/24 10:23:00;;;;;;;;;;;11.00;99.90;;;;;;5091175;28;20113;-63
2022/12/24 10:25:30;;;;;;;;;;;10.90;99.90;;;;;;5089840;28;20263;-63
2022/12/24 10:27:57;;;;;;;;;;;11.00;99.90;;;;;;5091061;28;19908;-63
2022/12/24 10:30:23;;;;;;;;;;;11.00;99.90;;;;;;5091052;28;19908;-63
2022/12/24 10:32:50;;;;;;;;;;;10.90;99.90;;;;;;5089698;28;19908;-63
2022/12/24 10:37:56;;;;;;;;;;;10.90;99.90;;;;;;5091493;28;19912;-64
2022/12/24 10:40:24;;;;;;;;;;;10.90;99.90;;;;;;5091173;28;20297;-63
2022/12/24 10:42:50;;;;;;;;;;;10.90;99.90;;;;;;5091175;28;19958;-63
2022/12/24 10:45:17;;;;;;;;;;;10.90;99.90;;;;;;5124319;28;19908;-63
2022/12/24 10:47:44;;;;;;;;;;;11.00;99.90;;;;;;5091124;28;20003;-63
2022/12/24 10:50:14;;;;;;;;;;;11.20;99.90;;;;;;5090959;28;19908;-64
2022/12/24 10:52:42;;;;;;;;;;;11.10;99.90;;;;;;5090946;28;19913;-64
2022/12/24 10:55:10;;;;;;;;;;;11.10;99.90;;;;;;5091218;28;19930;-63
2022/12/24 10:57:36;;;;;;;;;;;11.20;99.90;;;;;;5090794;28;19912;-63
2022/12/24 11:00:02;;;;;;;;;;;11.10;99.90;;;;;;5090795;28;19908;-63
2022/12/24 11:02:30;;;;;;;;;;;11.10;99.90;;;;;;5090776;28;20381;-63
2022/12/24 11:04:58;;;;;;;;;;;11.10;99.90;;;;;;5090712;28;20416;-63
2022/12/24 11:07:23;;;;;;;;;;;11.10;99.90;;;;;;5090953;28;19955;-63
2022/12/24 11:09:57;;;;;;;;;;;11.10;99.90;;;;;;5090606;28;19974;-63
2022/12/24 11:12:25;;;;;;;;;;;11.10;99.90;;;;;;5123401;28;19909;-63
2022/12/24 11:15:05;;;;;;;;;;;11.10;99.90;;;;;;5123452;28;19908;-63
2022/12/24 11:17:31;;;;;;;;;;;11.10;99.90;;;;;;5090416;28;19959;-63
2022/12/24 11:19:56;;;;;;;;;;;11.40;99.90;;;;;;5090425;28;19912;-63
2022/12/24 11:22:25;;;;;;;;;;;11.90;99.90;;;;;;5090416;28;19909;-63
2022/12/24 11:25:00;;;;;;;;;;;12.00;99.90;;;;;;5090321;28;19915;-63
2022/12/24 11:27:29;;;;;;;;;;;12.20;99.90;;;;;;5090279;28;19909;-63
2022/12/24 11:30:14;;;;;;;;;;;12.00;99.90;;;;;;5090451;28;19913;-63
2022/12/24 11:32:40;;;;;;;;;;;11.60;99.90;;;;;;5090257;28;19984;-63
2022/12/24 11:35:13;;;;;;;;;;;11.50;99.90;;;;;;5090344;28;20293;-63
2022/12/24 11:37:38;;;;;;;;;;;11.30;99.90;;;;;;5108413;28;19925;-63
2022/12/24 11:40:04;;;;;;;;;;;11.20;99.90;;;;;;5110374;28;19909;-63
2022/12/24 11:42:35;;;;;;;;;;;11.00;99.90;;;;;;5110288;28;19908;-63
2022/12/24 11:45:03;;;;;;;;;;;11.00;99.90;;;;;;5110232;28;19908;-63
2022/12/24 11:47:33;;;;;;;;;;;11.00;99.90;;;;;;5106507;28;19909;-63
2022/12/24 11:50:19;;;;;;;;;;;11.00;99.90;;;;;;5096772;28;20324;-63
2022/12/24 11:52:48;;;;;;;;;;;11.00;99.90;;;;;;5096467;28;19915;-63
2022/12/24 11:55:17;;;;;;;;;;;11.00;99.90;;;;;;5096465;28;19908;-63
2022/12/24 11:57:48;;;;;;;;;;;11.10;99.90;;;;;;5096374;28;19912;-63
2022/12/24 12:00:14;;;;;;;;;;;11.10;99.90;;;;;;5096450;28;19956;-64
2022/12/24 12:02:41;;;;;;;;;;;11.10;99.90;;;;;;5096385;28;19908;-65
2022/12/24 12:05:10;;;;;;;;;;;11.20;99.90;;;;;;5078234;28;19915;-63
2022/12/24 12:07:37;;;;;;;;;;;11.20;99.90;;;;;;5096545;28;20361;-63
2022/12/24 12:10:04;;;;;;;;;;;11.10;99.90;;;;;;5096229;28;19958;-63
2022/12/24 12:12:32;;;;;;;;;;;11.10;99.90;;;;;;5096168;28;19908;-63
2022/12/24 12:15:01;;;;;;;;;;;11.10;99.90;;;;;;5096177;28;20297;-63
2022/12/24 12:17:33;;;;;;;;;;;11.10;99.90;;;;;;5096073;28;20403;-63
2022/12/24 12:20:02;;;;;;;;;;;11.10;99.90;;;;;;5096079;28;19909;-63
2022/12/24 12:22:34;;;;;;;;;;;11.20;99.90;;;;;;5096029;28;19908;-63
2022/12/24 12:25:01;;;;;;;;;;;11.30;99.90;;;;;;5096036;28;19908;-63
2022/12/24 12:27:31;;;;;;;;;;;11.40;99.90;;;;;;5061088;28;19908;-63
2022/12/24 12:30:00;;;;;;;;;;;11.40;99.90;;;;;;5095880;28;19951;-63
2022/12/24 12:32:34;;;;;;;;;;;11.50;99.90;;;;;;5095806;28;19913;-63
2022/12/24 12:35:04;;;;;;;;;;;11.40;99.90;;;;;;5095782;28;19908;-63
2022/12/24 12:37:35;;;;;;;;;;;11.40;99.90;;;;;;5095473;28;19927;-63
2022/12/24 12:40:00;;;;;;;;;;;11.30;99.90;;;;;;5077611;28;20406;-63
2022/12/24 12:42:35;;;;;;;;;;;11.20;99.90;;;;;;5095616;28;19908;-63
2022/12/24 12:45:05;;;;;;;;;;;11.20;99.90;;;;;;5095597;28;19977;-63
2022/12/24 12:47:44;;;;;;;;;;;11.20;99.90;;;;;;5095545;28;19961;-63
2022/12/24 12:50:30;;;;;;;;;;;11.30;99.90;;;;;;5095760;28;19962;-63
2022/12/24 12:53:03;;;;;;;;;;;11.30;99.90;;;;;;5095235;28;19995;-63
2022/12/24 12:55:49;;;;;;;;;;;11.40;99.90;;;;;;5095569;28;20384;-63
2022/12/24 12:58:24;;;;;;;;;;;11.60;99.90;;;;;;5095298;28;20026;-63
2022/12/24 13:00:51;;;;;;;;;;;11.70;99.90;;;;;;5094317;28;19917;-63
2022/12/24 13:03:37;;;;;;;;;;;11.80;99.90;;;;;;5095473;28;19908;-63
2022/12/24 13:06:12;;;;;;;;;;;11.60;99.90;;;;;;5094978;28;20003;-63
2022/12/24 13:08:56;;;;;;;;;;;11.50;99.90;;;;;;5095126;28;19909;-63
2022/12/24 13:11:41;;;;;;;;;;;11.50;99.90;;;;;;5077265;28;19908;-63
2022/12/24 13:14:20;;;;;;;;;;;11.50;99.90;;;;;;5094972;28;19967;-63
2022/12/24 13:17:05;;;;;;;;;;;11.50;99.90;;;;;;5094841;28;20028;-63
2022/12/24 13:19:50;;;;;;;;;;;11.40;99.90;;;;;;5094678;28;19915;-63
2022/12/24 13:22:17;;;;;;;;;;;11.50;99.90;;;;;;5094723;28;20011;-63
2022/12/24 13:24:50;;;;;;;;;;;11.40;99.90;;;;;;5094825;28;20012;-63
2022/12/24 13:27:33;;;;;;;;;;;11.40;99.90;;;;;;5094749;28;19908;-63
2022/12/24 13:30:00;;;;;;;;;;;11.40;99.90;;;;;;5094662;28;19946;-63
2022/12/24 13:32:28;;;;;;;;;;;11.30;99.90;;;;;;5094902;28;19913;-63
2022/12/24 13:34:55;;;;;;;;;;;11.20;99.90;;;;;;5094871;28;20405;-63
2022/12/24 13:37:23;;;;;;;;;;;11.20;99.90;;;;;;5094365;28;20366;-64
2022/12/24 13:40:08;;;;;;;;;;;11.20;99.90;;;;;;5094794;28;20361;-63
2022/12/24 13:42:53;;;;;;;;;;;11.20;99.90;;;;;;5094310;28;19999;-63
2022/12/24 13:45:39;;;;;;;;;;;11.20;99.90;;;;;;5094230;28;19908;-63
2022/12/24 13:48:07;;;;;;;;;;;11.30;99.90;;;;;;5094163;28;20327;-63
2022/12/24 13:50:35;;;;;;;;;;;11.40;99.90;;;;;;5094359;28;19908;-63
2022/12/24 13:53:01;;;;;;;;;;;11.50;99.90;;;;;;5094322;28;19908;-63
2022/12/24 13:55:27;;;;;;;;;;;11.50;99.90;;;;;;5094253;28;19908;-63
2022/12/24 13:57:56;;;;;;;;;;;11.40;99.90;;;;;;5094177;28;19912;-63
2022/12/24 14:00:27;;;;;;;;;;;11.40;99.90;;;;;;5094441;28;19908;-63
2022/12/24 14:02:56;;;;;;;;;;;11.40;99.90;;;;;;5094132;28;19908;-63
2022/12/24 14:05:26;;;;;;;;;;;11.40;99.90;;;;;;5094066;28;19908;-63
2022/12/24 14:07:53;;;;;;;;;;;11.40;99.90;;;;;;5094326;28;19942;-63
2022/12/24 14:10:29;;;;;;;;;;;11.40;99.90;;;;;;5075831;28;19912;-63
2022/12/24 14:12:54;;;;;;;;;;;11.30;99.90;;;;;;5094003;28;19912;-63
2022/12/24 14:15:39;;;;;;;;;;;11.30;99.90;;;;;;5094010;28;19908;-63
2022/12/24 14:18:05;;;;;;;;;;;11.30;99.90;;;;;;5093764;28;20416;-63
2022/12/24 14:20:31;;;;;;;;;;;11.20;99.90;;;;;;5093883;28;19908;-63
2022/12/24 14:22:57;;;;;;;;;;;11.10;99.90;;;;;;5093863;28;19908;-63
2022/12/24 14:25:23;;;;;;;;;;;11.00;99.90;;;;;;5093835;28;19915;-63
2022/12/24 14:27:55;;;;;;;;;;;10.90;99.90;;;;;;5093820;28;19914;-63
2022/12/24 14:30:22;;;;;;;;;;;10.80;99.90;;;;;;5094091;28;20415;-63
2022/12/24 14:32:48;;;;;;;;;;;10.80;99.90;;;;;;5093793;28;19921;-63
2022/12/24 14:35:15;;;;;;;;;;;10.70;99.90;;;;;;5093759;28;19915;-63
2022/12/24 14:37:44;;;;;;;;;;;10.70;99.90;;;;;;5093545;28;19920;-63
2022/12/24 14:40:17;;;;;;;;;;;10.60;99.90;;;;;;5093977;28;20086;-63
2022/12/24 14:42:50;;;;;;;;;;;10.60;99.90;;;;;;5093938;28;20000;-64